createdAt,value
2023-07-02T00:02:30.017Z,88.51
2023-07-02T00:05:00.137Z,88.35
2023-07-02T00:07:30.206Z,87.95
2023-07-02T00:10:02.803Z,88.35
2023-07-02T00:12:33.205Z,88.10
2023-07-02T00:15:05.346Z,88.67
2023-07-02T00:17:35.535Z,89.18
2023-07-02T00:20:10.313Z,89.18
2023-07-02T00:22:40.312Z,88.66
2023-07-02T00:25:13.093Z,88.42
2023-07-02T00:27:43.123Z,88.45
2023-07-02T00:30:14.052Z,88.56
2023-07-02T00:32:46.636Z,88.67
2023-07-02T00:35:16.884Z,88.65
2023-07-02T00:37:47.696Z,88.78
2023-07-02T00:40:20.298Z,87.87
2023-07-02T00:42:52.143Z,88.04
2023-07-02T00:45:22.431Z,87.61
2023-07-02T00:47:53.194Z,88.18
2023-07-02T00:50:24.423Z,87.77
2023-07-02T00:52:55.317Z,87.69
2023-07-02T00:55:28.469Z,87.62
2023-07-02T00:57:59.347Z,88.82
2023-07-02T01:00:30.081Z,87.88
2023-07-02T01:03:01.166Z,88.25
2023-07-02T01:05:37.126Z,90.37
2023-07-02T01:08:07.304Z,90.32
2023-07-02T01:10:40.030Z,90.23
2023-07-02T01:13:16.160Z,90.30
2023-07-02T01:15:48.321Z,90.55
2023-07-02T01:18:19.464Z,89.88
2023-07-02T01:20:52.324Z,90.23
2023-07-02T01:23:22.890Z,90.22
2023-07-02T01:25:55.830Z,90.70
2023-07-02T01:28:26.239Z,90.25
2023-07-02T01:30:56.312Z,89.88
2023-07-02T01:33:26.286Z,90.02
2023-07-02T01:35:59.009Z,89.93
2023-07-02T01:38:29.050Z,89.94
2023-07-02T01:40:59.021Z,90.56
2023-07-02T01:43:29.166Z,90.00
2023-07-02T01:46:02.920Z,89.07
2023-07-02T01:48:33.006Z,88.37
2023-07-02T01:51:05.842Z,88.08
2023-07-02T01:53:35.813Z,87.62
2023-07-02T01:56:06.339Z,83.64
2023-07-02T01:58:36.356Z,78.14
2023-07-02T02:01:06.436Z,76.18
2023-07-02T02:03:36.590Z,76.06
2023-07-02T02:06:09.336Z,75.16
2023-07-02T02:08:39.321Z,75.28
2023-07-02T02:11:09.628Z,74.89
2023-07-02T02:13:39.667Z,73.71
2023-07-02T02:16:09.792Z,73.68
2023-07-02T02:18:39.842Z,74.09
2023-07-02T02:21:12.435Z,73.66
2023-07-02T02:23:42.931Z,73.83
2023-07-02T02:26:12.977Z,74.48
2023-07-02T02:28:42.996Z,74.99
2023-07-02T02:31:13.604Z,75.06
2023-07-02T02:33:43.954Z,74.80
2023-07-02T02:36:17.134Z,75.24
2023-07-02T02:38:47.402Z,75.42
2023-07-02T02:41:18.360Z,75.06
2023-07-02T02:43:53.622Z,75.31
2023-07-02T02:46:25.671Z,75.15
2023-07-02T02:48:56.872Z,75.16
2023-07-02T02:51:29.559Z,75.28
2023-07-02T02:53:59.594Z,75.12
2023-07-02T02:56:29.625Z,74.38
2023-07-02T02:58:59.695Z,74.48
2023-07-02T03:01:32.236Z,74.60
2023-07-02T03:04:03.572Z,74.85
2023-07-02T03:06:36.250Z,74.99
2023-07-02T03:09:06.515Z,74.96
2023-07-02T03:11:36.653Z,74.41
2023-07-02T03:14:06.721Z,74.63
2023-07-02T03:16:37.108Z,74.89
2023-07-02T03:19:07.171Z,74.56
2023-07-02T03:21:39.761Z,75.02
2023-07-02T03:24:11.692Z,74.85
2023-07-02T03:26:41.774Z,75.09
2023-07-02T03:29:11.981Z,75.25
2023-07-02T03:31:42.423Z,75.91
2023-07-02T03:34:13.819Z,76.21
2023-07-02T03:36:46.431Z,76.93
2023-07-02T03:39:16.475Z,76.50
2023-07-02T03:41:47.487Z,76.54
2023-07-02T03:44:17.549Z,77.01
2023-07-02T03:46:48.092Z,78.28
2023-07-02T03:49:18.118Z,78.40
2023-07-02T03:51:50.734Z,77.99
2023-07-02T03:54:20.720Z,77.87
2023-07-02T03:56:50.704Z,78.22
2023-07-02T03:59:20.698Z,77.91
2023-07-02T04:01:50.868Z,77.65
2023-07-02T04:04:21.015Z,77.46
2023-07-02T04:06:53.673Z,77.18
2023-07-02T04:09:23.867Z,76.98
2023-07-02T04:11:53.969Z,76.74
2023-07-02T04:14:23.940Z,77.18
2023-07-02T04:16:53.920Z,77.29
2023-07-02T04:19:23.892Z,76.75
2023-07-02T04:21:56.568Z,76.78
2023-07-02T04:24:26.949Z,76.55
2023-07-02T04:27:07.866Z,77.00
2023-07-02T04:29:47.505Z,76.54
2023-07-02T04:32:17.581Z,77.30
2023-07-02T04:34:47.665Z,77.30
2023-07-02T04:37:20.270Z,77.48
2023-07-02T04:39:50.353Z,76.44
2023-07-02T04:42:20.439Z,77.05
2023-07-02T04:44:50.453Z,76.87
2023-07-02T04:47:20.407Z,76.53
2023-07-02T04:49:50.498Z,75.92
2023-07-02T04:52:23.032Z,75.90
2023-07-02T04:54:53.060Z,75.84
2023-07-02T04:57:23.179Z,75.46
2023-07-02T04:59:53.457Z,75.77
2023-07-02T05:02:23.437Z,75.75
2023-07-02T05:04:53.560Z,75.21
2023-07-02T05:07:26.206Z,76.34
2023-07-02T05:09:56.251Z,76.15
2023-07-02T05:12:27.227Z,75.59
2023-07-02T05:14:57.251Z,75.09
2023-07-02T05:17:27.580Z,75.30
2023-07-02T05:19:57.624Z,74.73
2023-07-02T05:22:32.639Z,74.44
2023-07-02T05:25:02.942Z,73.77
2023-07-02T05:27:32.971Z,73.48
2023-07-02T05:30:03.016Z,73.45
2023-07-02T05:32:33.209Z,73.20
2023-07-02T05:35:03.351Z,72.94
2023-07-02T05:37:35.973Z,72.96
2023-07-02T05:40:06.128Z,72.81
2023-07-02T05:42:36.148Z,72.49
2023-07-02T05:45:06.567Z,72.12
2023-07-02T05:47:36.542Z,72.46
2023-07-02T05:50:06.716Z,71.96
2023-07-02T05:52:39.336Z,72.08
2023-07-02T05:55:13.928Z,71.08
2023-07-02T05:57:43.968Z,71.28
2023-07-02T06:00:15.568Z,71.63
2023-07-02T06:02:46.905Z,71.17
2023-07-02T06:05:17.093Z,71.06
2023-07-02T06:07:49.767Z,70.76
2023-07-02T06:10:20.292Z,70.80
2023-07-02T06:12:50.356Z,70.65
2023-07-02T06:15:20.368Z,70.37
2023-07-02T06:17:50.454Z,70.16
2023-07-02T06:20:20.572Z,70.41
2023-07-02T06:22:53.142Z,69.72
2023-07-02T06:25:23.184Z,68.96
2023-07-02T06:27:55.878Z,69.08
2023-07-02T06:30:26.271Z,69.22
2023-07-02T06:32:59.520Z,68.35
2023-07-02T06:35:29.605Z,68.32
2023-07-02T06:38:02.256Z,67.80
2023-07-02T06:40:33.086Z,66.80
2023-07-02T06:43:03.182Z,66.63
2023-07-02T06:45:33.269Z,66.46
2023-07-02T06:48:03.450Z,65.72
2023-07-02T06:50:33.483Z,64.88
2023-07-02T06:53:06.118Z,64.70
2023-07-02T06:55:36.217Z,64.21
2023-07-02T06:58:08.119Z,63.20
2023-07-02T07:00:39.213Z,63.65
2023-07-02T07:03:09.595Z,62.30
2023-07-02T07:05:39.665Z,61.98
2023-07-02T07:08:12.265Z,62.03
2023-07-02T07:10:42.283Z,62.46
2023-07-02T07:13:12.256Z,61.19
2023-07-02T07:15:42.529Z,60.85
2023-07-02T07:18:13.722Z,60.72
2023-07-02T07:20:45.656Z,60.83
2023-07-02T07:23:19.524Z,59.99
2023-07-02T07:25:49.602Z,59.91
2023-07-02T07:28:19.658Z,59.70
2023-07-02T07:30:50.341Z,59.03
2023-07-02T07:33:21.004Z,58.36
2023-07-02T07:35:51.387Z,58.31
2023-07-02T07:38:24.147Z,57.71
2023-07-02T07:40:54.671Z,56.22
2023-07-02T07:43:24.809Z,55.77
2023-07-02T07:45:56.166Z,55.03
2023-07-02T07:48:26.405Z,55.99
2023-07-02T07:50:56.905Z,55.20
2023-07-02T07:53:29.606Z,55.23
2023-07-02T07:56:00.623Z,56.27
2023-07-02T07:58:30.633Z,55.61
2023-07-02T08:01:00.689Z,56.02
2023-07-02T08:03:30.726Z,55.98
2023-07-02T08:06:00.799Z,55.75
2023-07-02T08:08:33.416Z,55.98
2023-07-02T08:11:03.607Z,55.67
2023-07-02T08:13:33.749Z,56.45
2023-07-02T08:16:03.971Z,55.84
2023-07-02T08:18:34.155Z,55.91
2023-07-02T08:21:06.216Z,56.12
2023-07-02T08:23:39.033Z,55.27
2023-07-02T08:26:09.270Z,54.49
2023-07-02T08:28:39.898Z,54.30
2023-07-02T08:31:10.085Z,54.74
2023-07-02T08:33:40.265Z,54.31
2023-07-02T08:36:10.519Z,53.88
2023-07-02T08:38:44.468Z,54.76
2023-07-02T08:41:14.833Z,55.03
2023-07-02T08:43:45.188Z,54.43
2023-07-02T08:46:16.409Z,54.45
2023-07-02T08:48:46.501Z,55.05
2023-07-02T08:51:17.237Z,53.74
2023-07-02T08:53:50.992Z,54.43
2023-07-02T08:56:21.127Z,54.71
2023-07-02T08:58:51.264Z,54.72
2023-07-02T09:01:21.491Z,55.31
2023-07-02T09:03:53.263Z,54.83
2023-07-02T09:06:25.288Z,54.09
2023-07-02T09:09:08.182Z,54.11
2023-07-02T09:11:39.084Z,53.35
2023-07-02T09:14:09.697Z,53.41
2023-07-02T09:16:41.814Z,53.11
2023-07-02T09:19:14.023Z,53.69
2023-07-02T09:21:47.484Z,53.11
2023-07-02T09:24:22.704Z,53.56
2023-07-02T09:26:55.073Z,53.63
2023-07-02T09:29:27.937Z,52.84
2023-07-02T09:32:09.368Z,52.52
2023-07-02T09:34:43.775Z,51.95
2023-07-02T09:37:13.974Z,51.72
2023-07-02T09:39:47.438Z,52.22
2023-07-02T09:42:18.120Z,52.15
2023-07-02T09:44:49.223Z,52.52
2023-07-02T09:47:23.140Z,52.10
2023-07-02T09:49:57.679Z,51.46
2023-07-02T09:52:29.260Z,51.79
2023-07-02T09:55:02.428Z,51.37
2023-07-02T09:57:32.740Z,51.19
2023-07-02T10:00:03.827Z,51.17
2023-07-02T10:02:37.458Z,50.55
2023-07-02T10:05:08.256Z,50.77
2023-07-02T10:07:38.511Z,51.05
2023-07-02T10:10:12.081Z,50.24
2023-07-02T10:12:50.193Z,48.94
2023-07-02T10:15:29.313Z,47.98
2023-07-02T10:18:00.834Z,48.20
2023-07-02T10:20:39.931Z,49.22
2023-07-02T10:23:11.604Z,49.50
2023-07-02T10:25:44.253Z,48.69
2023-07-02T10:28:27.863Z,47.96
2023-07-02T10:31:00.633Z,46.89
2023-07-02T10:33:34.913Z,47.17
2023-07-02T10:36:05.039Z,47.18
2023-07-02T10:38:35.121Z,47.26
2023-07-02T10:41:10.700Z,46.91
2023-07-02T10:43:40.795Z,46.72
2023-07-02T10:46:10.939Z,47.06
2023-07-02T10:48:42.593Z,46.87
2023-07-02T10:51:17.353Z,46.57
2023-07-02T10:53:48.660Z,45.42
2023-07-02T10:56:23.418Z,45.25
2023-07-02T10:58:53.921Z,45.71
2023-07-02T11:01:28.356Z,43.90
2023-07-02T11:04:06.669Z,43.02
2023-07-02T11:06:37.090Z,42.06
2023-07-02T11:09:07.262Z,41.53
2023-07-02T11:11:39.918Z,40.94
2023-07-02T11:14:10.023Z,40.96
2023-07-02T11:16:40.216Z,44.07
2023-07-02T11:19:13.178Z,44.39
2023-07-02T11:21:53.789Z,44.00
2023-07-02T11:24:32.003Z,43.17
2023-07-02T11:27:06.925Z,43.07
2023-07-02T11:29:39.860Z,42.64
2023-07-02T11:32:10.763Z,42.31
2023-07-02T11:34:41.989Z,42.62
2023-07-02T11:37:12.192Z,42.68
2023-07-02T11:39:42.279Z,42.11
2023-07-02T11:42:15.091Z,41.41
2023-07-02T11:44:45.308Z,41.30
2023-07-02T11:47:15.486Z,40.40
2023-07-02T11:49:45.909Z,40.61
2023-07-02T11:52:16.868Z,39.86
2023-07-02T11:54:46.918Z,38.33
2023-07-02T11:57:19.598Z,38.11
2023-07-02T11:59:50.538Z,37.91
2023-07-02T12:02:20.694Z,37.47
2023-07-02T12:04:50.878Z,36.77
2023-07-02T12:07:21.089Z,36.88
2023-07-02T12:09:51.167Z,37.13
2023-07-02T12:12:25.859Z,36.45
2023-07-02T12:14:55.928Z,36.35
2023-07-02T12:17:26.077Z,38.08
2023-07-02T12:19:56.220Z,38.37
2023-07-02T12:22:26.345Z,37.48
2023-07-02T12:24:58.837Z,36.73
2023-07-02T12:27:31.545Z,34.88
2023-07-02T12:30:01.546Z,34.52
2023-07-02T12:32:31.650Z,34.15
2023-07-02T12:35:02.583Z,33.16
2023-07-02T12:37:32.609Z,32.81
2023-07-02T12:40:02.752Z,33.64
2023-07-02T12:42:35.343Z,33.60
2023-07-02T12:45:05.414Z,34.50
2023-07-02T12:47:35.633Z,34.50
2023-07-02T12:50:05.905Z,34.64
2023-07-02T12:52:36.182Z,33.25
2023-07-02T12:55:06.924Z,32.66
2023-07-02T12:57:39.616Z,32.70
2023-07-02T13:00:11.404Z,32.71
2023-07-02T13:02:54.166Z,32.99
2023-07-02T13:05:31.642Z,32.52
2023-07-02T13:08:01.849Z,32.48
2023-07-02T13:10:33.166Z,33.17
2023-07-02T13:13:21.757Z,33.31
2023-07-02T13:15:55.017Z,32.95
2023-07-02T13:18:25.021Z,32.50
2023-07-02T13:20:55.060Z,32.04
2023-07-02T13:23:25.112Z,32.04
2023-07-02T13:25:55.350Z,31.17
2023-07-02T13:28:29.518Z,31.10
2023-07-02T13:31:00.327Z,31.45
2023-07-02T13:33:32.142Z,30.72
2023-07-02T13:36:02.347Z,30.66
2023-07-02T13:38:32.491Z,30.57
2023-07-02T13:41:03.151Z,30.27
2023-07-02T13:43:35.861Z,30.97
2023-07-02T13:46:07.359Z,30.45
2023-07-02T13:48:37.550Z,29.79
2023-07-02T13:51:09.323Z,30.00
2023-07-02T13:53:39.365Z,29.73
2023-07-02T13:56:09.496Z,29.48
2023-07-02T13:59:06.226Z,28.92
2023-07-02T14:01:36.682Z,28.54
2023-07-02T14:04:07.902Z,29.23
2023-07-02T14:06:38.069Z,28.56
2023-07-02T14:09:10.771Z,28.28
2023-07-02T14:11:43.072Z,28.37
2023-07-02T14:14:16.150Z,28.44
2023-07-02T14:16:46.647Z,28.20
2023-07-02T14:19:18.230Z,28.45
2023-07-02T14:21:48.417Z,28.32
2023-07-02T14:24:18.984Z,28.52
2023-07-02T14:26:49.039Z,28.13
2023-07-02T14:29:21.971Z,28.15
2023-07-02T14:31:53.991Z,28.04
2023-07-02T14:34:24.185Z,28.20
2023-07-02T14:36:54.228Z,28.22
2023-07-02T14:39:24.192Z,28.02
2023-07-02T14:41:54.757Z,26.99
2023-07-02T14:44:27.469Z,25.51
2023-07-02T14:46:57.657Z,26.49
2023-07-02T14:49:27.811Z,25.77
2023-07-02T14:51:57.803Z,25.37
2023-07-02T14:54:27.866Z,25.18
2023-07-02T14:56:57.866Z,25.74
2023-07-02T14:59:30.566Z,25.76
2023-07-02T15:02:00.559Z,25.58
2023-07-02T15:04:32.493Z,24.81
2023-07-02T15:07:02.769Z,24.43
2023-07-02T15:09:32.931Z,25.17
2023-07-02T15:12:03.043Z,24.97
2023-07-02T15:14:35.631Z,24.48
2023-07-02T15:17:05.835Z,25.17
2023-07-02T15:19:38.801Z,24.87
2023-07-02T15:22:09.019Z,24.32
2023-07-02T15:24:39.079Z,25.23
2023-07-02T15:27:09.796Z,24.43
2023-07-02T15:29:42.537Z,23.96
2023-07-02T15:32:12.597Z,24.42
2023-07-02T15:34:42.779Z,23.91
2023-07-02T15:37:12.836Z,23.12
2023-07-02T15:39:42.957Z,24.24
2023-07-02T15:42:13.162Z,24.39
2023-07-02T15:44:45.774Z,24.19
2023-07-02T15:47:16.478Z,24.76
2023-07-02T15:49:46.599Z,25.01
2023-07-02T15:52:16.725Z,24.30
2023-07-02T15:54:46.810Z,24.22
2023-07-02T15:57:16.912Z,23.61
2023-07-02T15:59:49.602Z,23.43
2023-07-02T16:02:19.733Z,24.85
2023-07-02T16:04:50.018Z,23.48
2023-07-02T16:07:20.242Z,24.13
2023-07-02T16:09:50.302Z,23.40
2023-07-02T16:12:20.378Z,23.46
2023-07-02T16:14:53.034Z,23.22
2023-07-02T16:17:23.173Z,24.82
2023-07-02T16:19:53.253Z,24.31
2023-07-02T16:22:23.312Z,23.30
2023-07-02T16:24:53.380Z,23.63
2023-07-02T16:27:24.269Z,24.20
2023-07-02T16:29:56.867Z,24.21
2023-07-02T16:32:29.912Z,23.59
2023-07-02T16:35:00.044Z,23.98
2023-07-02T16:37:30.221Z,22.87
2023-07-02T16:40:00.418Z,25.11
2023-07-02T16:42:30.535Z,23.99
2023-07-02T16:45:06.957Z,24.81
2023-07-02T16:47:38.311Z,24.71
2023-07-02T16:50:09.805Z,25.34
2023-07-02T16:52:39.895Z,26.00
2023-07-02T16:55:10.625Z,27.29
2023-07-02T16:57:40.703Z,26.31
2023-07-02T17:00:14.901Z,26.36
2023-07-02T17:02:44.965Z,25.86
2023-07-02T17:05:15.347Z,26.63
2023-07-02T17:07:45.353Z,27.76
2023-07-02T17:10:15.463Z,27.91
2023-07-02T17:12:45.613Z,27.49
2023-07-02T17:15:18.581Z,28.07
2023-07-02T17:17:48.817Z,28.95
2023-07-02T17:20:19.136Z,29.05
2023-07-02T17:22:49.285Z,27.78
2023-07-02T17:25:19.606Z,29.00
2023-07-02T17:27:49.661Z,29.10
2023-07-02T17:30:22.569Z,29.49
2023-07-02T17:32:52.726Z,29.10
2023-07-02T17:35:22.803Z,30.41
2023-07-02T17:37:52.836Z,30.17
2023-07-02T17:40:23.159Z,30.58
2023-07-02T17:42:53.266Z,30.81
2023-07-02T17:45:25.951Z,30.43
2023-07-02T17:47:56.058Z,31.13
2023-07-02T17:50:26.300Z,30.93
2023-07-02T17:52:56.364Z,31.41
2023-07-02T17:55:28.530Z,31.66
2023-07-02T17:58:00.061Z,32.15
2023-07-02T18:00:32.833Z,32.20
2023-07-02T18:03:03.037Z,31.91
2023-07-02T18:05:33.283Z,32.33
2023-07-02T18:08:03.401Z,32.59
2023-07-02T18:10:33.501Z,33.16
2023-07-02T18:13:03.539Z,32.84
2023-07-02T18:15:36.184Z,32.90
2023-07-02T18:18:06.250Z,33.01
2023-07-02T18:20:36.805Z,32.79
2023-07-02T18:23:06.875Z,33.09
2023-07-02T18:25:36.909Z,33.20
2023-07-02T18:28:09.117Z,33.17
2023-07-02T18:30:46.464Z,34.18
2023-07-02T18:33:16.925Z,33.92
2023-07-02T18:35:48.376Z,33.99
2023-07-02T18:38:19.907Z,34.31
2023-07-02T18:40:49.959Z,34.96
2023-07-02T18:43:19.990Z,35.27
2023-07-02T18:45:57.022Z,35.52
2023-07-02T18:48:27.364Z,35.20
2023-07-02T18:50:57.892Z,34.93
2023-07-02T18:53:28.821Z,35.59
2023-07-02T18:56:00.556Z,35.58
2023-07-02T18:58:32.789Z,35.69
2023-07-02T19:01:11.349Z,35.87
2023-07-02T19:03:41.778Z,36.57
2023-07-02T19:06:13.727Z,36.94
2023-07-02T19:08:44.830Z,36.70
2023-07-02T19:11:15.086Z,36.63
2023-07-02T19:13:45.390Z,37.23
2023-07-02T19:16:18.105Z,37.04
2023-07-02T19:18:48.309Z,37.28
2023-07-02T19:21:19.334Z,37.14
2023-07-02T19:23:50.400Z,37.69
2023-07-02T19:26:20.432Z,37.72
2023-07-02T19:28:50.722Z,38.02
2023-07-02T19:31:23.549Z,37.96
2023-07-02T19:33:53.746Z,38.10
2023-07-02T19:36:23.818Z,38.11
2023-07-02T19:38:53.954Z,38.39
2023-07-02T19:41:24.021Z,39.04
2023-07-02T19:43:55.480Z,38.31
2023-07-02T19:46:28.639Z,38.70
2023-07-02T19:49:00.351Z,39.27
2023-07-02T19:51:30.609Z,39.01
2023-07-02T19:54:01.414Z,39.54
2023-07-02T19:56:32.414Z,39.24
2023-07-02T19:59:02.851Z,39.38
2023-07-02T20:01:35.649Z,40.30
2023-07-02T20:04:05.877Z,40.76
2023-07-02T20:06:37.701Z,39.84
2023-07-02T20:09:08.161Z,40.12
2023-07-02T20:11:38.244Z,41.10
2023-07-02T20:14:08.406Z,41.36
2023-07-02T20:16:41.109Z,41.12
2023-07-02T20:19:11.343Z,41.47
2023-07-02T20:21:41.863Z,40.95
2023-07-02T20:24:11.894Z,41.47
2023-07-02T20:26:41.976Z,41.87
2023-07-02T20:29:11.958Z,42.01
2023-07-02T20:31:44.646Z,42.03
2023-07-02T20:34:16.496Z,41.60
2023-07-02T20:36:46.571Z,42.06
2023-07-02T20:39:16.577Z,42.06
2023-07-02T20:41:47.435Z,41.81
2023-07-02T20:44:18.149Z,42.18
2023-07-02T20:46:50.831Z,42.18
2023-07-02T20:49:23.434Z,42.15
2023-07-02T20:51:54.165Z,42.01
2023-07-02T20:54:24.290Z,42.54
2023-07-02T20:56:54.376Z,42.46
2023-07-02T20:59:24.461Z,42.56
2023-07-02T21:01:57.115Z,43.10
2023-07-02T21:04:27.322Z,43.13
2023-07-02T21:06:57.347Z,42.55
2023-07-02T21:09:28.416Z,42.75
2023-07-02T21:11:58.679Z,43.41
2023-07-02T21:14:28.738Z,43.11
2023-07-02T21:17:01.677Z,43.67
2023-07-02T21:19:31.865Z,43.63
2023-07-02T21:22:01.975Z,43.67
2023-07-02T21:24:32.061Z,43.92
2023-07-02T21:27:02.127Z,43.50
2023-07-02T21:29:32.306Z,43.06
2023-07-02T21:32:05.073Z,43.02
2023-07-02T21:34:37.040Z,42.79
2023-07-02T21:37:07.343Z,42.91
2023-07-02T21:39:37.404Z,43.30
2023-07-02T21:42:07.916Z,42.70
2023-07-02T21:44:37.954Z,43.80
2023-07-02T21:47:11.029Z,42.79
2023-07-02T21:49:41.124Z,42.65
2023-07-02T21:52:11.337Z,43.38
2023-07-02T21:54:41.428Z,42.77
2023-07-02T21:57:11.767Z,42.96
2023-07-02T21:59:41.854Z,43.72
2023-07-02T22:02:14.582Z,43.35
2023-07-02T22:04:47.310Z,43.50
2023-07-02T22:07:17.566Z,43.18
2023-07-02T22:09:48.272Z,43.65
2023-07-02T22:12:18.267Z,43.74
2023-07-02T22:14:48.305Z,43.52
2023-07-02T22:17:20.923Z,43.34
2023-07-02T22:19:51.031Z,43.62
2023-07-02T22:22:21.103Z,43.70
2023-07-02T22:24:51.557Z,43.85
2023-07-02T22:27:23.641Z,44.42
2023-07-02T22:29:53.688Z,44.36
2023-07-02T22:32:26.409Z,44.79
2023-07-02T22:34:56.568Z,44.80
2023-07-02T22:37:26.921Z,44.98
2023-07-02T22:39:57.144Z,45.27
2023-07-02T22:42:28.129Z,45.80
2023-07-02T22:44:58.387Z,46.09
2023-07-02T22:47:31.506Z,46.11
2023-07-02T22:50:01.590Z,45.81
2023-07-02T22:52:32.248Z,45.55
2023-07-02T22:55:02.745Z,46.29
2023-07-02T22:57:35.336Z,46.28
2023-07-02T23:00:13.434Z,45.87
2023-07-02T23:02:48.911Z,46.45
2023-07-02T23:05:23.940Z,46.61
2023-07-02T23:07:54.273Z,46.27
2023-07-02T23:10:24.286Z,46.84
2023-07-02T23:12:55.418Z,46.57
2023-07-02T23:15:25.684Z,47.12
2023-07-02T23:17:58.572Z,46.97
2023-07-02T23:20:29.256Z,47.00
2023-07-02T23:23:02.845Z,47.43
2023-07-02T23:25:32.810Z,47.37
2023-07-02T23:28:07.667Z,47.36
2023-07-02T23:30:43.085Z,47.83
2023-07-02T23:33:15.947Z,47.48
2023-07-02T23:35:46.132Z,47.71
2023-07-02T23:38:16.365Z,47.37
2023-07-02T23:40:47.084Z,47.84
2023-07-02T23:43:17.242Z,47.89
2023-07-02T23:45:47.413Z,47.70
2023-07-02T23:48:20.071Z,47.38
2023-07-02T23:50:50.291Z,47.74
2023-07-02T23:53:20.345Z,47.68
2023-07-02T23:55:51.695Z,47.81
2023-07-02T23:58:22.299Z,48.12
